Time;durP1;ratioP1;P1;durP2;ratioP2;P2;SDS_P1;SDS_P2;PMS_P1;PMS_P2;Temp;Humidity;BMP_temperature;BMP_pressure;BME280_temperature;BME280_humidity;BME280_pressure;Samples;Min_cycle;Max_cycle;Signal;HPM_P1;HPM_P2
2022/11/23 00:01:35;;;;;;;4.43;1.83;;;;;;;;;;5046156;28;20044;-56
2022/11/23 00:04:04;;;;;;;3.50;1.95;;;;;;;;;;5043313;28;20021;-58
2022/11/23 00:06:30;;;;;;;5.55;2.25;;;;;;;;;;5052105;28;20486;-56
2022/11/23 00:08:55;;;;;;;8.45;2.03;;;;;;;;;;5048902;28;20021;-55
2022/11/23 00:11:23;;;;;;;4.85;1.60;;;;;;;;;;5047046;28;20031;-56
2022/11/23 00:13:49;;;;;;;4.90;1.70;;;;;;;;;;5040892;28;20037;-56
2022/11/23 00:16:20;;;;;;;4.95;2.10;;;;;;;;;;5052574;28;20402;-56
2022/11/23 00:18:46;;;;;;;6.60;2.25;;;;;;;;;;5048607;28;20151;-57
2022/11/23 00:21:15;;;;;;;4.00;1.77;;;;;;;;;;5046275;28;20029;-57
2022/11/23 00:23:41;;;;;;;5.45;1.75;;;;;;;;;;5046257;28;20025;-57
2022/11/23 00:26:08;;;;;;;5.25;1.70;;;;;;;;;;5048290;28;20036;-57
2022/11/23 00:28:37;;;;;;;11.27;2.00;;;;;;;;;;5048661;28;20029;-57
2022/11/23 00:31:04;;;;;;;6.78;1.60;;;;;;;;;;5047527;28;20029;-57
2022/11/23 00:33:29;;;;;;;3.95;1.58;;;;;;;;;;5046895;28;20041;-57
2022/11/23 00:36:07;;;;;;;4.13;2.03;;;;;;;;;;5047467;28;20087;-56
2022/11/23 00:38:32;;;;;;;8.02;2.15;;;;;;;;;;5050865;28;20029;-57
2022/11/23 00:41:00;;;;;;;8.25;2.40;;;;;;;;;;5049544;28;20547;-56
2022/11/23 00:43:26;;;;;;;6.45;2.72;;;;;;;;;;5052118;28;20040;-56
2022/11/23 00:46:05;;;;;;;4.13;2.13;;;;;;;;;;5050788;28;20032;-56
2022/11/23 00:48:30;;;;;;;4.00;1.58;;;;;;;;;;5050435;28;20051;-56
2022/11/23 00:50:56;;;;;;;3.80;1.67;;;;;;;;;;5048585;28;20045;-57
2022/11/23 00:53:21;;;;;;;3.03;1.90;;;;;;;;;;5050114;28;20035;-57
2022/11/23 00:55:51;;;;;;;3.65;1.70;;;;;;;;;;5049193;28;20029;-57
2022/11/23 00:58:17;;;;;;;2.58;1.40;;;;;;;;;;5049643;28;20024;-57
2022/11/23 01:00:43;;;;;;;5.18;1.50;;;;;;;;;;5049512;28;20493;-57
2022/11/23 01:03:08;;;;;;;4.05;1.40;;;;;;;;;;5044773;28;20035;-57
2022/11/23 01:05:38;;;;;;;3.15;1.55;;;;;;;;;;5043356;28;20108;-56
2022/11/23 01:08:04;;;;;;;2.83;1.42;;;;;;;;;;5048823;28;20027;-56
2022/11/23 01:10:30;;;;;;;4.32;1.75;;;;;;;;;;5039608;28;20037;-56
2022/11/23 01:12:56;;;;;;;4.38;1.40;;;;;;;;;;5045506;28;20027;-55
2022/11/23 01:15:22;;;;;;;5.25;1.77;;;;;;;;;;5044652;28;20431;-56
2022/11/23 01:17:48;;;;;;;5.97;1.55;;;;;;;;;;5041212;28;20094;-57
2022/11/23 01:20:13;;;;;;;4.00;1.30;;;;;;;;;;5041377;28;20475;-56
2022/11/23 01:22:39;;;;;;;3.67;1.23;;;;;;;;;;5047358;28;20087;-56
2022/11/23 01:25:05;;;;;;;3.15;1.45;;;;;;;;;;5046724;28;20040;-56
2022/11/23 01:27:31;;;;;;;4.75;1.38;;;;;;;;;;5047643;28;20025;-56
2022/11/23 01:29:56;;;;;;;2.40;1.40;;;;;;;;;;5045881;28;20031;-56
2022/11/23 01:32:21;;;;;;;2.95;1.27;;;;;;;;;;5044534;28;20080;-57
2022/11/23 01:34:47;;;;;;;1.92;1.30;;;;;;;;;;5047507;28;20029;-57
2022/11/23 01:37:12;;;;;;;3.50;1.35;;;;;;;;;;5049024;28;20058;-56
2022/11/23 01:39:37;;;;;;;3.67;1.33;;;;;;;;;;5045982;28;20167;-56
2022/11/23 01:42:06;;;;;;;3.70;1.80;;;;;;;;;;5049369;28;20342;-56
2022/11/23 01:44:35;;;;;;;5.30;1.52;;;;;;;;;;5049559;28;20024;-56
2022/11/23 01:47:07;;;;;;;2.65;1.30;;;;;;;;;;5044465;28;20513;-56
2022/11/23 01:49:37;;;;;;;5.72;1.38;;;;;;;;;;5046210;28;20025;-56
2022/11/23 01:52:08;;;;;;;3.75;1.73;;;;;;;;;;5047378;28;20067;-55
2022/11/23 01:54:39;;;;;;;3.22;1.17;;;;;;;;;;5047768;28;20202;-57
2022/11/23 01:57:24;;;;;;;3.78;1.10;;;;;;;;;;5044943;28;20036;-56
2022/11/23 01:59:51;;;;;;;7.18;1.20;;;;;;;;;;5049417;28;20103;-56
2022/11/23 02:02:16;;;;;;;5.20;1.52;;;;;;;;;;5046871;28;20056;-56
2022/11/23 02:04:45;;;;;;;2.40;1.35;;;;;;;;;;5046007;28;20048;-55
2022/11/23 02:07:12;;;;;;;3.03;1.20;;;;;;;;;;5049503;28;20024;-56
2022/11/23 02:09:38;;;;;;;3.63;1.40;;;;;;;;;;5043221;28;20025;-56
2022/11/23 02:12:10;;;;;;;2.85;1.20;;;;;;;;;;5042694;28;20037;-56
2022/11/23 02:14:36;;;;;;;3.70;1.65;;;;;;;;;;5054056;28;20024;-55
2022/11/23 02:17:01;;;;;;;6.38;1.60;;;;;;;;;;5047111;28;20073;-57
2022/11/23 02:19:32;;;;;;;6.65;1.30;;;;;;;;;;5044848;28;20043;-57
2022/11/23 02:21:58;;;;;;;4.88;1.30;;;;;;;;;;5045671;28;20056;-56
2022/11/23 02:24:32;;;;;;;3.80;1.17;;;;;;;;;;5045114;28;20083;-57
2022/11/23 02:26:57;;;;;;;7.53;1.58;;;;;;;;;;5048464;28;20396;-56
2022/11/23 02:29:24;;;;;;;4.82;1.38;;;;;;;;;;5046255;28;20027;-57
2022/11/23 02:31:51;;;;;;;5.30;1.60;;;;;;;;;;5048941;28;20487;-55
2022/11/23 02:34:17;;;;;;;8.02;1.80;;;;;;;;;;5050243;28;20108;-55
2022/11/23 02:36:48;;;;;;;3.90;1.40;;;;;;;;;;5044132;28;20027;-57
2022/11/23 02:39:34;;;;;;;4.07;1.38;;;;;;;;;;5047257;28;20028;-56
2022/11/23 02:42:00;;;;;;;5.50;1.45;;;;;;;;;;5049215;28;20461;-56
2022/11/23 02:44:29;;;;;;;6.57;1.55;;;;;;;;;;5048741;28;20032;-55
2022/11/23 02:46:54;;;;;;;6.32;1.67;;;;;;;;;;5047639;28;20051;-55
2022/11/23 02:49:20;;;;;;;5.70;1.80;;;;;;;;;;5046972;28;20032;-54
2022/11/23 02:51:45;;;;;;;5.25;1.40;;;;;;;;;;5049533;28;20082;-54
2022/11/23 02:54:10;;;;;;;4.82;1.40;;;;;;;;;;5044481;28;20052;-55
2022/11/23 02:56:36;;;;;;;5.13;2.00;;;;;;;;;;5043950;28;20105;-55
2022/11/23 02:59:01;;;;;;;3.55;1.30;;;;;;;;;;5047688;28;20383;-55
2022/11/23 03:01:28;;;;;;;4.72;2.10;;;;;;;;;;5042090;28;20033;-55
2022/11/23 03:03:53;;;;;;;2.47;1.10;;;;;;;;;;5049204;28;20037;-56
2022/11/23 03:06:18;;;;;;;3.08;1.45;;;;;;;;;;5043587;28;20037;-56
2022/11/23 03:08:44;;;;;;;7.47;2.03;;;;;;;;;;5045332;28;20029;-55
2022/11/23 03:11:09;;;;;;;16.95;1.70;;;;;;;;;;5040561;28;20533;-55
2022/11/23 03:13:34;;;;;;;4.03;1.60;;;;;;;;;;5048217;28;20082;-55
2022/11/23 03:16:00;;;;;;;4.63;1.75;;;;;;;;;;5043771;28;20025;-55
2022/11/23 03:18:25;;;;;;;6.25;1.63;;;;;;;;;;5045431;28;20108;-56
2022/11/23 03:20:51;;;;;;;4.65;1.73;;;;;;;;;;5048905;28;20478;-56
2022/11/23 03:23:16;;;;;;;3.80;1.90;;;;;;;;;;5048036;28;20032;-55
2022/11/23 03:25:42;;;;;;;2.08;1.50;;;;;;;;;;5043715;28;20025;-55
2022/11/23 03:28:07;;;;;;;5.57;1.55;;;;;;;;;;5044641;28;20546;-56
2022/11/23 03:30:33;;;;;;;5.78;1.50;;;;;;;;;;5044205;28;20036;-55
2022/11/23 03:32:58;;;;;;;2.88;1.67;;;;;;;;;;5045593;28;20039;-55
2022/11/23 03:35:23;;;;;;;4.50;1.55;;;;;;;;;;5047575;28;20039;-57
2022/11/23 03:37:49;;;;;;;3.40;2.05;;;;;;;;;;5048505;28;20037;-55
2022/11/23 03:40:14;;;;;;;3.13;1.30;;;;;;;;;;5051685;28;20029;-55
2022/11/23 03:42:40;;;;;;;6.13;2.05;;;;;;;;;;5053181;28;20032;-56
2022/11/23 03:45:07;;;;;;;4.60;1.45;;;;;;;;;;5051104;28;20524;-56
2022/11/23 03:47:32;;;;;;;6.78;1.63;;;;;;;;;;5051088;28;20028;-56
2022/11/23 03:49:58;;;;;;;3.65;1.48;;;;;;;;;;5051182;28;20032;-56
2022/11/23 03:52:23;;;;;;;4.00;1.67;;;;;;;;;;5051248;28;20123;-55
2022/11/23 03:54:48;;;;;;;3.72;1.70;;;;;;;;;;5049033;28;20051;-56
2022/11/23 03:57:14;;;;;;;4.15;1.73;;;;;;;;;;5049195;28;20029;-55
2022/11/23 03:59:39;;;;;;;7.30;2.13;;;;;;;;;;5048318;28;20053;-56
2022/11/23 04:02:06;;;;;;;6.13;1.80;;;;;;;;;;5050032;28;20029;-56
2022/11/23 04:04:32;;;;;;;3.13;1.50;;;;;;;;;;5047092;28;20072;-56
2022/11/23 04:06:57;;;;;;;6.72;1.85;;;;;;;;;;5051168;28;20067;-56
2022/11/23 04:09:22;;;;;;;4.47;1.45;;;;;;;;;;5047560;28;20025;-56
2022/11/23 04:11:48;;;;;;;3.72;1.52;;;;;;;;;;5048903;28;20025;-57
2022/11/23 04:14:13;;;;;;;2.72;1.40;;;;;;;;;;5044018;28;20035;-55
2022/11/23 04:16:39;;;;;;;5.03;1.40;;;;;;;;;;5048012;28;20029;-56
2022/11/23 04:19:04;;;;;;;2.95;1.55;;;;;;;;;;5048698;28;20107;-56
2022/11/23 04:21:29;;;;;;;4.88;1.50;;;;;;;;;;5046207;28;20025;-56
2022/11/23 04:23:55;;;;;;;3.15;1.58;;;;;;;;;;5056167;28;20029;-57
2022/11/23 04:26:20;;;;;;;6.90;1.75;;;;;;;;;;5052589;28;20508;-56
2022/11/23 04:28:45;;;;;;;3.50;1.48;;;;;;;;;;5047864;28;20025;-56
2022/11/23 04:31:11;;;;;;;3.50;1.40;;;;;;;;;;5048716;28;20040;-56
2022/11/23 04:33:36;;;;;;;5.90;1.58;;;;;;;;;;5051515;28;20612;-56
2022/11/23 04:36:02;;;;;;;4.72;1.50;;;;;;;;;;5051383;28;20037;-56
2022/11/23 04:38:27;;;;;;;4.70;1.63;;;;;;;;;;5052384;28;20116;-57
2022/11/23 04:40:52;;;;;;;7.30;1.60;;;;;;;;;;5050197;28;20105;-56
2022/11/23 04:43:18;;;;;;;5.43;1.58;;;;;;;;;;5049338;28;20025;-57
2022/11/23 04:45:44;;;;;;;4.80;1.35;;;;;;;;;;5048664;28;20067;-57
2022/11/23 04:48:09;;;;;;;4.63;1.45;;;;;;;;;;5050244;28;20504;-56
2022/11/23 04:50:36;;;;;;;7.05;1.48;;;;;;;;;;5047664;28;20024;-56
2022/11/23 04:53:02;;;;;;;6.35;1.85;;;;;;;;;;5049698;28;20524;-55
2022/11/23 04:55:27;;;;;;;8.48;1.80;;;;;;;;;;5050176;28;20086;-56
2022/11/23 04:57:52;;;;;;;2.58;1.90;;;;;;;;;;5048415;28;20550;-56
2022/11/23 05:00:18;;;;;;;5.20;1.70;;;;;;;;;;5046521;28;20021;-56
2022/11/23 05:02:43;;;;;;;4.60;1.90;;;;;;;;;;5045469;28;20029;-56
2022/11/23 05:05:09;;;;;;;3.53;1.70;;;;;;;;;;5048189;28;20029;-56
2022/11/23 05:07:34;;;;;;;7.82;1.92;;;;;;;;;;5047926;28;20113;-56
2022/11/23 05:09:59;;;;;;;6.43;1.67;;;;;;;;;;5041186;28;20380;-56
2022/11/23 05:12:25;;;;;;;5.40;1.70;;;;;;;;;;5044041;28;20499;-56
2022/11/23 05:14:50;;;;;;;8.45;3.42;;;;;;;;;;5049375;28;20086;-56
2022/11/23 05:17:15;;;;;;;7.80;3.00;;;;;;;;;;5043744;28;20033;-56
2022/11/23 05:19:41;;;;;;;6.47;2.60;;;;;;;;;;5046639;28;20413;-56
2022/11/23 05:22:06;;;;;;;6.68;2.10;;;;;;;;;;5038027;28;20041;-56
2022/11/23 05:24:32;;;;;;;3.08;1.70;;;;;;;;;;5044571;28;20467;-55
2022/11/23 05:26:57;;;;;;;4.55;2.20;;;;;;;;;;5045248;28;20040;-55
2022/11/23 05:29:22;;;;;;;7.38;3.53;;;;;;;;;;5051372;28;20033;-56
2022/11/23 05:31:48;;;;;;;10.52;3.55;;;;;;;;;;5045170;28;20032;-56
2022/11/23 05:34:13;;;;;;;5.00;2.13;;;;;;;;;;5049228;28;20036;-56
2022/11/23 05:36:39;;;;;;;5.65;3.10;;;;;;;;;;5053104;28;20035;-56
2022/11/23 05:39:04;;;;;;;3.55;1.90;;;;;;;;;;5050671;28;20040;-56
2022/11/23 05:41:30;;;;;;;3.40;1.80;;;;;;;;;;5048217;28;20111;-56
2022/11/23 05:43:55;;;;;;;7.63;2.38;;;;;;;;;;5046314;28;20033;-56
2022/11/23 05:46:20;;;;;;;6.22;1.80;;;;;;;;;;5049250;28;20167;-56
2022/11/23 05:48:46;;;;;;;7.25;2.60;;;;;;;;;;5046703;28;20427;-56
2022/11/23 05:51:11;;;;;;;12.60;4.35;;;;;;;;;;5049537;28;20108;-56
2022/11/23 05:53:36;;;;;;;11.85;3.53;;;;;;;;;;5046362;28;20079;-56
2022/11/23 05:56:02;;;;;;;7.28;2.80;;;;;;;;;;5047427;28;20047;-56
2022/11/23 05:58:28;;;;;;;7.20;3.28;;;;;;;;;;5047048;28;20036;-56
2022/11/23 06:00:58;;;;;;;6.25;2.53;;;;;;;;;;5047557;28;21094;-56
2022/11/23 06:03:24;;;;;;;4.55;1.83;;;;;;;;;;5042780;28;20040;-54
2022/11/23 06:05:49;;;;;;;8.05;1.90;;;;;;;;;;5044950;28;20037;-57
2022/11/23 06:08:14;;;;;;;7.70;2.70;;;;;;;;;;5041973;28;20469;-57
2022/11/23 06:10:40;;;;;;;6.25;2.17;;;;;;;;;;5048177;28;20032;-57
2022/11/23 06:13:05;;;;;;;7.35;2.35;;;;;;;;;;5049502;28;20060;-57
2022/11/23 06:15:30;;;;;;;9.18;2.35;;;;;;;;;;5047011;28;20029;-57
2022/11/23 06:18:02;;;;;;;10.30;2.50;;;;;;;;;;5049626;28;20027;-57
2022/11/23 06:20:28;;;;;;;4.90;2.05;;;;;;;;;;5046275;28;20100;-57
2022/11/23 06:22:54;;;;;;;7.45;1.73;;;;;;;;;;5043897;28;20094;-58
2022/11/23 06:25:20;;;;;;;8.20;1.85;;;;;;;;;;5045095;28;20479;-57
2022/11/23 06:27:59;;;;;;;4.70;2.10;;;;;;;;;;5048710;28;20020;-57
2022/11/23 06:30:26;;;;;;;5.72;1.90;;;;;;;;;;5046050;28;20098;-57
2022/11/23 06:32:52;;;;;;;6.53;1.92;;;;;;;;;;5048723;28;20086;-56
2022/11/23 06:35:17;;;;;;;5.32;1.73;;;;;;;;;;5048142;28;20482;-56
2022/11/23 06:37:43;;;;;;;7.32;1.80;;;;;;;;;;5049838;28;20367;-57
2022/11/23 06:40:10;;;;;;;6.57;2.05;;;;;;;;;;5049763;28;20029;-56
2022/11/23 06:42:35;;;;;;;9.52;2.45;;;;;;;;;;5049802;28;20024;-57
2022/11/23 06:45:01;;;;;;;6.43;2.83;;;;;;;;;;5047437;28;20040;-57
2022/11/23 06:47:29;;;;;;;6.10;2.40;;;;;;;;;;5050681;28;20029;-56
2022/11/23 06:49:54;;;;;;;7.72;2.50;;;;;;;;;;5048638;28;20037;-57
2022/11/23 06:52:20;;;;;;;6.68;2.28;;;;;;;;;;5062032;28;20401;-57
2022/11/23 06:54:45;;;;;;;8.65;2.22;;;;;;;;;;5044046;28;20021;-57
2022/11/23 06:57:11;;;;;;;6.60;2.67;;;;;;;;;;5045838;28;20037;-57
2022/11/23 06:59:36;;;;;;;12.13;2.42;;;;;;;;;;5061833;28;20032;-56
2022/11/23 07:02:01;;;;;;;3.28;2.00;;;;;;;;;;5046229;28;20542;-56
2022/11/23 07:04:27;;;;;;;6.10;2.25;;;;;;;;;;5036981;28;20124;-56
2022/11/23 07:06:52;;;;;;;8.20;2.13;;;;;;;;;;5045418;28;20025;-56
2022/11/23 07:09:17;;;;;;;5.25;3.10;;;;;;;;;;5042234;28;20390;-57
2022/11/23 07:11:43;;;;;;;9.13;2.70;;;;;;;;;;5046538;28;20174;-57
2022/11/23 07:14:08;;;;;;;8.20;2.90;;;;;;;;;;5044659;28;20040;-57
2022/11/23 07:16:34;;;;;;;7.18;2.75;;;;;;;;;;5045550;28;20044;-56
2022/11/23 07:18:59;;;;;;;7.50;2.50;;;;;;;;;;5046164;28;20393;-56
2022/11/23 07:21:24;;;;;;;5.88;2.70;;;;;;;;;;5043671;28;20036;-57
2022/11/23 07:23:50;;;;;;;5.28;2.60;;;;;;;;;;5043111;28;20035;-56
2022/11/23 07:26:15;;;;;;;7.60;2.38;;;;;;;;;;5043487;28;20029;-56
2022/11/23 07:28:41;;;;;;;5.53;2.60;;;;;;;;;;5045417;28;20052;-57
2022/11/23 07:31:06;;;;;;;6.03;2.40;;;;;;;;;;5045247;28;20025;-56
2022/11/23 07:33:32;;;;;;;5.53;2.85;;;;;;;;;;5042650;28;20029;-57
2022/11/23 07:36:01;;;;;;;12.10;5.43;;;;;;;;;;5047816;28;20032;-57
2022/11/23 07:38:26;;;;;;;8.80;3.67;;;;;;;;;;5047480;28;20490;-56
2022/11/23 07:40:52;;;;;;;10.63;2.58;;;;;;;;;;5046361;28;20051;-55
2022/11/23 07:43:17;;;;;;;8.45;3.05;;;;;;;;;;5046516;28;20041;-57
2022/11/23 07:45:43;;;;;;;5.53;2.60;;;;;;;;;;5046470;28;20506;-57
2022/11/23 07:48:09;;;;;;;5.78;2.65;;;;;;;;;;5046562;28;20017;-56
2022/11/23 07:50:36;;;;;;;7.22;2.90;;;;;;;;;;5039332;28;20064;-56
2022/11/23 07:53:03;;;;;;;6.00;2.83;;;;;;;;;;5043423;28;20086;-56
2022/11/23 07:55:30;;;;;;;6.88;2.78;;;;;;;;;;5046503;28;20033;-57
2022/11/23 07:57:56;;;;;;;6.53;2.75;;;;;;;;;;5048742;28;20074;-56
2022/11/23 08:00:23;;;;;;;8.23;3.00;;;;;;;;;;5043242;28;20540;-56
2022/11/23 08:02:50;;;;;;;7.18;3.05;;;;;;;;;;5040230;28;20021;-56
2022/11/23 08:05:16;;;;;;;8.02;3.75;;;;;;;;;;5042136;28;20032;-57
2022/11/23 08:07:42;;;;;;;11.57;4.18;;;;;;;;;;5038138;28;20021;-57
2022/11/23 08:10:08;;;;;;;16.70;3.83;;;;;;;;;;5044746;28;20033;-57
2022/11/23 08:12:34;;;;;;;5.85;3.28;;;;;;;;;;5043751;28;20025;-57
2022/11/23 08:14:59;;;;;;;6.50;3.00;;;;;;;;;;5041782;28;20031;-56
2022/11/23 08:17:24;;;;;;;5.78;3.15;;;;;;;;;;5046265;28;20057;-57
2022/11/23 08:19:50;;;;;;;6.05;3.33;;;;;;;;;;5046478;28;20108;-57
2022/11/23 08:22:15;;;;;;;7.50;3.30;;;;;;;;;;5044781;28;20037;-57
2022/11/23 08:24:41;;;;;;;6.20;2.95;;;;;;;;;;5046481;28;20029;-57
2022/11/23 08:27:06;;;;;;;6.38;3.10;;;;;;;;;;5043477;28;20021;-57
2022/11/23 08:29:31;;;;;;;8.77;3.22;;;;;;;;;;5046984;28;20107;-57
2022/11/23 08:31:57;;;;;;;5.72;2.72;;;;;;;;;;5047461;28;20115;-57
2022/11/23 08:34:22;;;;;;;12.02;4.78;;;;;;;;;;5048472;28;20025;-57
2022/11/23 08:36:48;;;;;;;6.32;3.10;;;;;;;;;;5049473;28;20128;-58
2022/11/23 08:39:15;;;;;;;5.82;2.90;;;;;;;;;;5050787;28;20029;-57
2022/11/23 08:41:40;;;;;;;5.63;2.97;;;;;;;;;;5049029;28;20111;-58
2022/11/23 08:44:08;;;;;;;4.25;2.90;;;;;;;;;;5049302;28;20485;-57
2022/11/23 08:46:34;;;;;;;8.38;2.50;;;;;;;;;;5048590;28;20047;-57
2022/11/23 08:49:00;;;;;;;3.85;2.40;;;;;;;;;;5050615;28;20548;-57
2022/11/23 08:51:25;;;;;;;4.80;2.58;;;;;;;;;;5047769;28;20025;-58
2022/11/23 08:53:50;;;;;;;4.75;2.95;;;;;;;;;;5050328;28;20035;-57
2022/11/23 08:56:16;;;;;;;5.65;2.70;;;;;;;;;;5047047;28;20024;-57
2022/11/23 08:58:42;;;;;;;7.13;2.72;;;;;;;;;;5049080;28;20439;-58
2022/11/23 09:01:15;;;;;;;5.35;3.00;;;;;;;;;;5050606;28;20036;-57
2022/11/23 09:03:41;;;;;;;4.05;2.95;;;;;;;;;;5043826;28;20477;-58
2022/11/23 09:06:07;;;;;;;6.45;3.30;;;;;;;;;;5048759;28;20028;-57
2022/11/23 09:08:32;;;;;;;4.20;2.05;;;;;;;;;;5038272;28;20495;-58
2022/11/23 09:10:59;;;;;;;5.45;2.30;;;;;;;;;;5049657;28;20037;-58
2022/11/23 09:13:25;;;;;;;4.22;2.47;;;;;;;;;;5049539;28;20033;-58
2022/11/23 09:15:50;;;;;;;8.20;2.95;;;;;;;;;;5037972;28;20545;-56
2022/11/23 09:18:15;;;;;;;6.30;2.97;;;;;;;;;;5043993;28;20060;-58
2022/11/23 09:20:41;;;;;;;5.53;2.78;;;;;;;;;;5045065;28;20051;-58
2022/11/23 09:23:08;;;;;;;5.75;3.05;;;;;;;;;;5042881;28;20044;-56
2022/11/23 09:25:33;;;;;;;5.35;3.00;;;;;;;;;;5048685;28;20033;-56
2022/11/23 09:27:59;;;;;;;8.57;4.13;;;;;;;;;;5044437;28;20109;-56
2022/11/23 09:30:26;;;;;;;6.93;2.72;;;;;;;;;;5050688;28;20053;-56
2022/11/23 09:32:51;;;;;;;6.10;2.55;;;;;;;;;;5050101;28;20567;-57
2022/11/23 09:35:16;;;;;;;7.05;2.70;;;;;;;;;;5047261;28;20028;-58
2022/11/23 09:37:42;;;;;;;8.38;2.45;;;;;;;;;;5048239;28;20032;-56
2022/11/23 09:40:13;;;;;;;6.85;3.40;;;;;;;;;;5049070;28;20049;-56
2022/11/23 09:42:58;;;;;;;7.45;3.65;;;;;;;;;;5047109;28;20520;-55
2022/11/23 09:45:32;;;;;;;7.15;4.40;;;;;;;;;;5046565;28;20475;-56
2022/11/23 09:48:26;;;;;;;5.38;3.33;;;;;;;;;;5047595;28;20108;-57
2022/11/23 09:51:01;;;;;;;6.22;3.63;;;;;;;;;;5049956;28;20560;-57
2022/11/23 09:53:36;;;;;;;5.75;3.47;;;;;;;;;;5050279;28;20028;-56
2022/11/23 09:56:01;;;;;;;6.40;3.20;;;;;;;;;;5045601;28;20052;-58
2022/11/23 09:58:34;;;;;;;7.30;3.13;;;;;;;;;;5043025;28;20061;-58
2022/11/23 10:01:02;;;;;;;9.00;4.28;;;;;;;;;;5045689;28;20021;-56
2022/11/23 10:03:31;;;;;;;4.03;2.97;;;;;;;;;;5044717;28;20020;-56
2022/11/23 10:06:25;;;;;;;6.25;4.70;;;;;;;;;;5043000;28;20025;-57
2022/11/23 10:08:53;;;;;;;4.88;3.10;;;;;;;;;;5045040;28;20113;-57
2022/11/23 10:11:39;;;;;;;6.47;3.00;;;;;;;;;;5046601;28;20036;-56
2022/11/23 10:14:30;;;;;;;5.28;3.83;;;;;;;;;;5047592;28;20120;-57
2022/11/23 10:17:12;;;;;;;8.55;5.35;;;;;;;;;;5044851;28;20386;-57
2022/11/23 10:19:47;;;;;;;6.00;3.28;;;;;;;;;;5044582;28;20459;-56
2022/11/23 10:22:29;;;;;;;8.10;4.32;;;;;;;;;;5044120;28;20521;-57
2022/11/23 10:24:55;;;;;;;5.78;3.88;;;;;;;;;;5042822;28;20171;-57
2022/11/23 10:27:22;;;;;;;11.38;5.70;;;;;;;;;;5044234;28;20422;-56
2022/11/23 10:29:48;;;;;;;6.18;3.25;;;;;;;;;;5045413;28;20037;-57
2022/11/23 10:32:36;;;;;;;15.13;7.55;;;;;;;;;;5047047;28;20075;-58
2022/11/23 10:35:10;;;;;;;6.68;3.40;;;;;;;;;;5044562;28;20029;-58
2022/11/23 10:37:38;;;;;;;5.82;3.05;;;;;;;;;;5043300;28;20037;-58
2022/11/23 10:40:17;;;;;;;4.63;3.30;;;;;;;;;;5047934;28;20037;-58
2022/11/23 10:42:57;;;;;;;8.73;5.57;;;;;;;;;;5045395;28;20040;-57
2022/11/23 10:45:25;;;;;;;7.63;4.20;;;;;;;;;;5046751;28;20501;-57
2022/11/23 10:47:58;;;;;;;7.10;4.63;;;;;;;;;;5050414;28;20410;-57
2022/11/23 10:50:33;;;;;;;5.13;3.63;;;;;;;;;;5043191;28;20097;-58
2022/11/23 10:53:21;;;;;;;8.80;2.78;;;;;;;;;;5046227;28;20040;-57
2022/11/23 10:55:58;;;;;;;4.60;2.83;;;;;;;;;;5044908;28;20391;-57
2022/11/23 10:58:25;;;;;;;4.80;3.83;;;;;;;;;;5046904;28;20053;-58
2022/11/23 11:01:03;;;;;;;6.22;3.60;;;;;;;;;;5045029;28;20359;-59
2022/11/23 11:03:32;;;;;;;4.78;3.75;;;;;;;;;;5037991;28;20110;-58
2022/11/23 11:05:58;;;;;;;5.22;3.67;;;;;;;;;;5048719;28;20394;-60
2022/11/23 11:08:29;;;;;;;3.90;3.00;;;;;;;;;;5041775;28;20022;-59
2022/11/23 11:11:06;;;;;;;4.15;2.70;;;;;;;;;;5043869;28;20029;-60
2022/11/23 11:13:41;;;;;;;3.75;2.90;;;;;;;;;;5048555;28;20027;-57
2022/11/23 11:16:25;;;;;;;4.97;3.50;;;;;;;;;;5041412;28;20041;-58
2022/11/23 11:18:51;;;;;;;4.13;3.03;;;;;;;;;;5043589;28;20029;-57
2022/11/23 11:21:22;;;;;;;4.53;3.20;;;;;;;;;;5042652;28;20564;-57
2022/11/23 11:23:59;;;;;;;4.30;3.00;;;;;;;;;;5047009;28;20021;-57
2022/11/23 11:26:26;;;;;;;5.75;2.55;;;;;;;;;;5042175;28;20497;-57
2022/11/23 11:29:04;;;;;;;4.88;2.90;;;;;;;;;;5045969;28;20021;-57
2022/11/23 11:31:49;;;;;;;4.95;2.63;;;;;;;;;;5048915;28;20020;-58
2022/11/23 11:34:20;;;;;;;4.38;2.78;;;;;;;;;;5045600;28;20538;-56
2022/11/23 11:36:58;;;;;;;5.85;2.55;;;;;;;;;;5046903;28;20045;-57
2022/11/23 11:39:41;;;;;;;4.07;2.20;;;;;;;;;;5043961;28;20017;-58
2022/11/23 11:42:16;;;;;;;4.85;2.35;;;;;;;;;;5048347;28;20029;-57
2022/11/23 11:44:44;;;;;;;6.35;2.28;;;;;;;;;;5044714;28;20431;-58
2022/11/23 11:47:21;;;;;;;3.65;2.30;;;;;;;;;;5044685;28;20025;-58
2022/11/23 11:49:48;;;;;;;7.35;3.25;;;;;;;;;;5046654;28;20051;-57
2022/11/23 11:52:29;;;;;;;4.88;2.53;;;;;;;;;;5048546;28;20033;-58
2022/11/23 11:55:20;;;;;;;4.00;2.22;;;;;;;;;;5044431;28;20029;-58
2022/11/23 11:57:49;;;;;;;4.45;2.78;;;;;;;;;;5044255;28;20080;-57
2022/11/23 12:00:18;;;;;;;6.68;2.45;;;;;;;;;;5051774;28;20125;-58
2022/11/23 12:03:02;;;;;;;4.28;2.55;;;;;;;;;;5048382;28;20371;-58
2022/11/23 12:05:50;;;;;;;4.75;2.13;;;;;;;;;;5048593;28;20558;-57
2022/11/23 12:08:43;;;;;;;3.63;2.03;;;;;;;;;;5052476;28;20024;-58
2022/11/23 12:11:10;;;;;;;5.03;2.10;;;;;;;;;;5049351;28;20068;-58
2022/11/23 12:13:39;;;;;;;3.25;1.88;;;;;;;;;;5048392;28;20094;-58
2022/11/23 12:16:37;;;;;;;4.72;2.17;;;;;;;;;;5044619;28;20029;-58
2022/11/23 12:19:12;;;;;;;4.28;2.05;;;;;;;;;;5040243;28;20044;-58
2022/11/23 12:22:15;;;;;;;7.53;2.25;;;;;;;;;;5047765;28;20033;-58
2022/11/23 12:24:55;;;;;;;5.20;2.40;;;;;;;;;;5051033;28;20031;-58
2022/11/23 12:27:26;;;;;;;4.88;1.92;;;;;;;;;;5046590;28;20017;-58
2022/11/23 12:30:07;;;;;;;3.70;1.50;;;;;;;;;;5051908;28;20398;-58
2022/11/23 12:32:50;;;;;;;3.95;1.77;;;;;;;;;;5051016;28;20131;-58
2022/11/23 12:35:52;;;;;;;4.32;1.67;;;;;;;;;;5050017;28;20029;-58
2022/11/23 12:38:32;;;;;;;4.50;1.67;;;;;;;;;;5051322;28;20033;-57
2022/11/23 12:41:16;;;;;;;5.45;1.60;;;;;;;;;;5050230;28;20379;-57
2022/11/23 12:43:48;;;;;;;4.47;1.50;;;;;;;;;;5046785;28;20112;-57
2022/11/23 12:46:20;;;;;;;5.70;1.80;;;;;;;;;;5050895;28;20039;-57
2022/11/23 12:49:02;;;;;;;3.70;1.88;;;;;;;;;;5046804;28;20028;-58
2022/11/23 12:51:50;;;;;;;4.75;1.63;;;;;;;;;;5048482;28;20116;-57
2022/11/23 12:54:24;;;;;;;2.87;1.00;;;;;;;;;;5048347;28;20082;-58
2022/11/23 12:56:58;;;;;;;3.60;1.10;;;;;;;;;;5049330;28;20536;-57
2022/11/23 12:59:29;;;;;;;8.57;4.18;;;;;;;;;;5052350;28;20040;-56
2022/11/23 13:02:00;;;;;;;6.53;2.60;;;;;;;;;;5046970;28;20094;-58
2022/11/23 13:04:47;;;;;;;16.50;9.73;;;;;;;;;;5042999;28;20033;-57
2022/11/23 13:07:39;;;;;;;6.93;3.92;;;;;;;;;;5045321;28;20021;-57
2022/11/23 13:10:14;;;;;;;5.57;3.33;;;;;;;;;;5046906;28;20105;-58
2022/11/23 13:12:42;;;;;;;3.78;1.80;;;;;;;;;;5039338;28;20087;-57
2022/11/23 13:15:51;;;;;;;6.28;2.15;;;;;;;;;;5047105;28;20086;-58
2022/11/23 13:18:37;;;;;;;5.28;1.48;;;;;;;;;;5039431;28;20034;-58
2022/11/23 13:21:02;;;;;;;4.25;1.92;;;;;;;;;;5046764;28;20129;-57
2022/11/23 13:23:35;;;;;;;2.58;1.02;;;;;;;;;;5045995;28;20116;-57
2022/11/23 13:26:21;;;;;;;4.40;1.23;;;;;;;;;;5042520;28;20030;-56
2022/11/23 13:28:49;;;;;;;3.50;1.08;;;;;;;;;;5049164;28;20079;-58
2022/11/23 13:31:14;;;;;;;2.83;1.30;;;;;;;;;;5050728;28;20052;-57
2022/11/23 13:33:41;;;;;;;1.92;1.40;;;;;;;;;;5039761;28;20033;-57
2022/11/23 13:36:28;;;;;;;2.75;1.75;;;;;;;;;;5048925;28;20041;-57
2022/11/23 13:38:53;;;;;;;3.80;1.92;;;;;;;;;;5048414;28;20463;-57
2022/11/23 13:41:31;;;;;;;2.38;1.30;;;;;;;;;;5047000;28;20118;-56
2022/11/23 13:43:57;;;;;;;4.53;1.92;;;;;;;;;;5049906;28;20028;-57
2022/11/23 13:46:29;;;;;;;3.38;1.85;;;;;;;;;;5049962;28;20036;-57
2022/11/23 13:48:58;;;;;;;5.70;2.80;;;;;;;;;;5046784;28;20028;-57
2022/11/23 13:51:25;;;;;;;7.13;2.85;;;;;;;;;;5043276;28;20617;-57
2022/11/23 13:54:02;;;;;;;7.47;1.88;;;;;;;;;;5045422;28;20039;-58
2022/11/23 13:56:33;;;;;;;5.10;2.30;;;;;;;;;;5049940;28;20059;-60
2022/11/23 13:59:19;;;;;;;8.80;2.38;;;;;;;;;;5041941;28;20057;-58
2022/11/23 14:02:01;;;;;;;3.95;2.20;;;;;;;;;;5051242;28;20405;-58
2022/11/23 14:04:39;;;;;;;3.67;1.75;;;;;;;;;;5041234;28;20047;-58
2022/11/23 14:07:37;;;;;;;7.97;1.77;;;;;;;;;;5045767;28;20025;-59
2022/11/23 14:10:14;;;;;;;5.50;1.60;;;;;;;;;;5041655;28;20498;-59
2022/11/23 14:12:56;;;;;;;3.50;1.98;;;;;;;;;;5046102;28;20075;-59
2022/11/23 14:15:31;;;;;;;10.07;3.28;;;;;;;;;;5040742;28;20473;-59
2022/11/23 14:18:14;;;;;;;4.80;2.53;;;;;;;;;;5046285;28;20021;-59
2022/11/23 14:20:42;;;;;;;2.50;1.52;;;;;;;;;;5044741;28;20029;-59
2022/11/23 14:23:26;;;;;;;5.70;1.70;;;;;;;;;;5043314;28;20026;-58
2022/11/23 14:26:07;;;;;;;4.38;2.17;;;;;;;;;;5044224;28;20072;-59
2022/11/23 14:29:02;;;;;;;3.13;1.83;;;;;;;;;;5048767;28;20143;-59
2022/11/23 14:31:46;;;;;;;6.78;1.90;;;;;;;;;;5045472;28;20037;-59
2022/11/23 14:34:24;;;;;;;3.30;1.50;;;;;;;;;;5046255;28;20470;-59
2022/11/23 14:37:10;;;;;;;10.90;5.78;;;;;;;;;;5044601;28;20034;-58
2022/11/23 14:39:36;;;;;;;3.85;2.20;;;;;;;;;;5048940;28;20513;-58
2022/11/23 14:42:09;;;;;;;5.38;1.70;;;;;;;;;;5043484;28;20040;-58
2022/11/23 14:44:35;;;;;;;5.38;1.92;;;;;;;;;;5043723;28;20437;-58
2022/11/23 14:47:01;;;;;;;5.25;3.45;;;;;;;;;;5046454;28;20549;-58
2022/11/23 14:49:27;;;;;;;6.05;2.33;;;;;;;;;;5049975;28;20025;-59
2022/11/23 14:51:53;;;;;;;11.32;4.80;;;;;;;;;;5046292;28;20082;-59
2022/11/23 14:54:19;;;;;;;9.68;4.40;;;;;;;;;;5042657;28;20106;-59
2022/11/23 14:56:46;;;;;;;10.30;3.58;;;;;;;;;;5047324;28;20106;-59
2022/11/23 14:59:27;;;;;;;11.75;5.43;;;;;;;;;;5045705;28;20040;-59